createdAt,value
2018-11-13T00:01:59.487Z,100.00
2018-11-13T00:04:29.042Z,100.00
2018-11-13T00:06:57.513Z,100.00
2018-11-13T00:09:26.243Z,100.00
2018-11-13T00:11:54.748Z,100.00
2018-11-13T00:14:23.317Z,100.00
2018-11-13T00:16:51.807Z,100.00
2018-11-13T00:19:20.318Z,100.00
2018-11-13T00:21:48.749Z,100.00
2018-11-13T00:24:17.171Z,100.00
2018-11-13T00:26:45.746Z,100.00
2018-11-13T00:29:14.227Z,100.00
2018-11-13T00:31:42.635Z,100.00
2018-11-13T00:34:12.037Z,100.00
2018-11-13T00:36:40.427Z,100.00
2018-11-13T00:39:11.836Z,100.00
2018-11-13T00:41:40.334Z,100.00
2018-11-13T00:44:09.215Z,100.00
2018-11-13T00:46:37.991Z,100.00
2018-11-13T00:49:06.707Z,100.00
2018-11-13T00:51:35.885Z,100.00
2018-11-13T00:54:04.504Z,100.00
2018-11-13T00:56:32.971Z,100.00
2018-11-13T00:59:01.376Z,100.00
2018-11-13T01:01:29.836Z,100.00
2018-11-13T01:03:58.283Z,100.00
2018-11-13T01:06:26.753Z,100.00
2018-11-13T01:08:55.282Z,100.00
2018-11-13T01:11:23.731Z,100.00
2018-11-13T01:13:52.114Z,100.00
2018-11-13T01:16:20.517Z,100.00
2018-11-13T01:18:49.903Z,100.00
2018-11-13T01:21:18.380Z,100.00
2018-11-13T01:23:46.950Z,100.00
2018-11-13T01:26:15.803Z,100.00
2018-11-13T01:28:44.474Z,100.00
2018-11-13T01:31:12.917Z,100.00
2018-11-13T01:33:41.371Z,100.00
2018-11-13T01:36:09.852Z,100.00
2018-11-13T01:38:38.429Z,100.00
2018-11-13T01:41:06.974Z,100.00
2018-11-13T01:43:35.519Z,100.00
2018-11-13T01:46:04.010Z,100.00
2018-11-13T01:48:32.481Z,100.00
2018-11-13T01:51:00.890Z,100.00
2018-11-13T01:53:29.346Z,100.00
2018-11-13T01:55:57.839Z,100.00
2018-11-13T01:58:26.288Z,100.00
2018-11-13T02:00:54.947Z,100.00
2018-11-13T02:03:23.399Z,100.00
2018-11-13T02:05:51.890Z,100.00
2018-11-13T02:08:20.840Z,100.00
2018-11-13T02:10:50.061Z,100.00
2018-11-13T02:13:18.528Z,100.00
2018-11-13T02:15:47.167Z,100.00
2018-11-13T02:18:15.582Z,100.00
2018-11-13T02:20:44.027Z,100.00
2018-11-13T02:23:12.641Z,100.00
2018-11-13T02:25:42.025Z,100.00
2018-11-13T02:28:10.564Z,100.00
2018-11-13T02:30:39.039Z,100.00
2018-11-13T02:33:07.479Z,100.00
2018-11-13T02:35:36.782Z,100.00
2018-11-13T02:38:05.192Z,100.00
2018-11-13T02:40:33.639Z,100.00
2018-11-13T02:43:03.140Z,100.00
2018-11-13T02:45:31.670Z,100.00
2018-11-13T02:48:00.197Z,100.00
2018-11-13T02:50:28.627Z,100.00
2018-11-13T02:52:57.161Z,100.00
2018-11-13T02:55:25.631Z,100.00
2018-11-13T02:57:54.550Z,100.00
2018-11-13T03:00:23.314Z,100.00
2018-11-13T03:02:51.946Z,100.00
2018-11-13T03:05:21.460Z,100.00
2018-11-13T03:07:49.914Z,100.00
2018-11-13T03:10:19.299Z,100.00
2018-11-13T03:12:47.902Z,100.00
2018-11-13T03:15:17.496Z,100.00
2018-11-13T03:17:46.033Z,100.00
2018-11-13T03:20:15.727Z,100.00
2018-11-13T03:22:44.692Z,100.00
2018-11-13T03:25:17.263Z,100.00
2018-11-13T03:27:45.887Z,100.00
2018-11-13T03:30:17.621Z,100.00
2018-11-13T03:32:46.720Z,100.00
2018-11-13T03:35:15.770Z,100.00
2018-11-13T03:37:44.835Z,100.00
2018-11-13T03:40:14.293Z,100.00
2018-11-13T03:42:43.526Z,100.00
2018-11-13T03:45:13.043Z,100.00
2018-11-13T03:47:42.441Z,100.00
2018-11-13T03:50:15.402Z,100.00
2018-11-13T03:52:44.537Z,100.00
2018-11-13T03:55:13.935Z,100.00
2018-11-13T03:57:43.599Z,100.00
2018-11-13T04:00:13.965Z,100.00
2018-11-13T04:02:42.592Z,100.00
2018-11-13T04:05:12.458Z,100.00
2018-11-13T04:07:42.247Z,100.00
2018-11-13T04:10:12.392Z,100.00
2018-11-13T04:12:41.179Z,100.00
2018-11-13T04:15:12.364Z,100.00
2018-11-13T04:17:40.835Z,100.00
2018-11-13T04:20:11.149Z,100.00
2018-11-13T04:22:39.721Z,100.00
2018-11-13T04:25:08.273Z,100.00
2018-11-13T04:27:36.993Z,100.00
2018-11-13T04:30:06.340Z,100.00
2018-11-13T04:32:35.739Z,100.00
2018-11-13T04:35:04.407Z,100.00
2018-11-13T04:37:33.008Z,100.00
2018-11-13T04:40:01.395Z,100.00
2018-11-13T04:42:30.169Z,100.00
2018-11-13T04:44:58.520Z,100.00
2018-11-13T04:47:27.751Z,100.00
2018-11-13T04:49:56.467Z,100.00
2018-11-13T04:52:24.874Z,100.00
2018-11-13T04:54:53.850Z,100.00
2018-11-13T04:57:23.524Z,100.00
2018-11-13T04:59:53.018Z,100.00
2018-11-13T05:02:21.748Z,100.00
2018-11-13T05:04:50.447Z,100.00
2018-11-13T05:07:19.289Z,100.00
2018-11-13T05:09:48.171Z,100.00
2018-11-13T05:12:17.743Z,100.00
2018-11-13T05:14:46.638Z,100.00
2018-11-13T05:17:15.287Z,100.00
2018-11-13T05:19:44.032Z,100.00
2018-11-13T05:22:12.653Z,100.00
2018-11-13T05:24:41.423Z,100.00
2018-11-13T05:27:10.216Z,100.00
2018-11-13T05:29:39.308Z,100.00
2018-11-13T05:32:08.780Z,100.00
2018-11-13T05:34:37.828Z,100.00
2018-11-13T05:37:06.332Z,100.00
2018-11-13T05:39:35.011Z,100.00
2018-11-13T05:42:03.549Z,100.00
2018-11-13T05:44:32.840Z,100.00
2018-11-13T05:47:01.603Z,100.00
2018-11-13T05:49:30.155Z,100.00
2018-11-13T05:51:58.706Z,100.00
2018-11-13T05:54:27.554Z,100.00
2018-11-13T05:56:59.092Z,100.00
2018-11-13T05:59:27.554Z,100.00
2018-11-13T06:01:55.966Z,100.00
2018-11-13T06:04:24.736Z,100.00
2018-11-13T06:06:53.264Z,100.00
2018-11-13T06:09:21.884Z,100.00
2018-11-13T06:11:50.612Z,100.00
2018-11-13T06:14:19.646Z,100.00
2018-11-13T06:16:48.345Z,100.00
2018-11-13T06:19:17.183Z,100.00
2018-11-13T06:21:46.288Z,100.00
2018-11-13T06:24:15.070Z,100.00
2018-11-13T06:26:44.119Z,100.00
2018-11-13T06:29:13.108Z,100.00
2018-11-13T06:31:41.932Z,100.00
2018-11-13T06:34:10.762Z,100.00
2018-11-13T06:36:39.925Z,100.00
2018-11-13T06:39:11.732Z,100.00
2018-11-13T06:41:40.834Z,100.00
2018-11-13T06:44:09.713Z,100.00
2018-11-13T06:46:40.668Z,100.00
2018-11-13T06:49:10.054Z,100.00
2018-11-13T06:51:39.101Z,100.00
2018-11-13T06:54:18.920Z,100.00
2018-11-13T06:56:47.933Z,100.00
2018-11-13T06:59:17.038Z,100.00
2018-11-13T07:01:45.947Z,100.00
2018-11-13T07:04:15.027Z,100.00
2018-11-13T07:06:43.677Z,100.00
2018-11-13T07:09:12.268Z,100.00
2018-11-13T07:11:41.276Z,100.00
2018-11-13T07:14:10.177Z,100.00
2018-11-13T07:16:39.034Z,100.00
2018-11-13T07:19:07.782Z,100.00
2018-11-13T07:21:37.156Z,100.00
2018-11-13T07:24:05.818Z,100.00
2018-11-13T07:26:34.376Z,100.00
2018-11-13T07:29:03.206Z,100.00
2018-11-13T07:31:32.068Z,100.00
2018-11-13T07:34:00.791Z,100.00
2018-11-13T07:36:29.470Z,100.00
2018-11-13T07:38:58.724Z,100.00
2018-11-13T07:41:27.572Z,100.00
2018-11-13T07:43:56.337Z,100.00
2018-11-13T07:46:24.963Z,100.00
2018-11-13T07:48:53.825Z,100.00
2018-11-13T07:51:22.553Z,100.00
2018-11-13T07:53:51.246Z,100.00
2018-11-13T07:56:19.843Z,100.00
2018-11-13T07:58:48.380Z,100.00
2018-11-13T08:01:16.972Z,100.00
2018-11-13T08:03:45.499Z,100.00
2018-11-13T08:06:14.264Z,100.00
2018-11-13T08:11:22.537Z,100.00
2018-11-13T08:13:51.047Z,100.00
2018-11-13T08:16:19.618Z,100.00
2018-11-13T08:18:48.318Z,100.00
2018-11-13T08:21:16.869Z,100.00
2018-11-13T08:23:45.514Z,100.00
2018-11-13T08:26:14.207Z,100.00
2018-11-13T08:28:42.796Z,100.00
2018-11-13T08:31:11.334Z,100.00
2018-11-13T08:33:40.083Z,100.00
2018-11-13T08:36:09.146Z,100.00
2018-11-13T08:38:37.790Z,100.00
2018-11-13T08:41:07.274Z,100.00
2018-11-13T08:43:36.119Z,100.00
2018-11-13T08:46:05.090Z,100.00
2018-11-13T08:48:33.906Z,100.00
2018-11-13T08:51:02.515Z,100.00
2018-11-13T08:53:31.256Z,100.00
2018-11-13T08:55:59.797Z,100.00
2018-11-13T08:58:28.473Z,100.00
2018-11-13T09:00:56.849Z,100.00
2018-11-13T09:03:25.511Z,100.00
2018-11-13T09:05:54.182Z,100.00
2018-11-13T09:08:22.672Z,100.00
2018-11-13T09:10:51.168Z,100.00
2018-11-13T09:13:19.726Z,100.00
2018-11-13T09:15:48.249Z,100.00
2018-11-13T09:18:16.881Z,100.00
2018-11-13T09:20:45.577Z,100.00
2018-11-13T09:23:14.334Z,100.00
2018-11-13T09:25:42.833Z,100.00
2018-11-13T09:28:11.438Z,100.00
2018-11-13T09:30:40.051Z,100.00
2018-11-13T09:33:08.508Z,100.00
2018-11-13T09:35:37.216Z,100.00
2018-11-13T09:38:05.965Z,100.00
2018-11-13T09:40:34.516Z,100.00
2018-11-13T09:43:03.257Z,100.00
2018-11-13T09:45:31.943Z,100.00
2018-11-13T09:48:00.668Z,100.00
2018-11-13T09:50:29.277Z,100.00
2018-11-13T09:52:57.836Z,100.00
2018-11-13T09:55:26.567Z,100.00
2018-11-13T09:57:55.208Z,100.00
2018-11-13T10:00:25.881Z,100.00
2018-11-13T10:03:02.017Z,100.00
2018-11-13T10:05:29.709Z,100.00
2018-11-13T10:07:58.755Z,100.00
2018-11-13T10:10:27.663Z,100.00
2018-11-13T10:12:56.356Z,100.00
2018-11-13T10:15:26.282Z,99.48
2018-11-13T10:17:54.910Z,100.00
2018-11-13T10:20:23.563Z,100.00
2018-11-13T10:22:53.307Z,99.69
2018-11-13T10:25:21.960Z,99.65
2018-11-13T10:27:50.589Z,99.49
2018-11-13T10:30:20.492Z,98.12
2018-11-13T10:32:49.652Z,97.31
2018-11-13T10:35:19.595Z,96.57
2018-11-13T10:37:48.410Z,96.87
2018-11-13T10:40:18.549Z,95.77
2018-11-13T10:42:47.029Z,95.19
2018-11-13T10:45:17.217Z,94.22
2018-11-13T10:47:45.775Z,94.59
2018-11-13T10:50:18.046Z,94.38
2018-11-13T10:52:46.602Z,94.99
2018-11-13T10:55:15.232Z,93.33
2018-11-13T10:57:43.976Z,93.17
2018-11-13T11:00:18.493Z,93.26
2018-11-13T11:02:52.575Z,88.83
2018-11-13T11:05:21.495Z,89.52
2018-11-13T11:07:50.694Z,89.43
2018-11-13T11:10:19.510Z,90.86
2018-11-13T11:12:48.376Z,91.09
2018-11-13T11:15:17.133Z,91.22
2018-11-13T11:17:45.681Z,88.37
2018-11-13T11:20:14.513Z,89.77
2018-11-13T11:22:43.173Z,89.37
2018-11-13T11:25:12.849Z,88.94
2018-11-13T11:27:41.658Z,87.84
2018-11-13T11:30:14.147Z,88.60
2018-11-13T11:32:42.796Z,87.47
2018-11-13T11:35:11.710Z,90.44
2018-11-13T11:37:40.987Z,88.26
2018-11-13T11:40:11.256Z,86.21
2018-11-13T11:42:39.878Z,86.96
2018-11-13T11:45:10.753Z,86.51
2018-11-13T11:47:39.267Z,86.23
2018-11-13T11:50:09.277Z,85.94
2018-11-13T11:52:38.297Z,85.83
2018-11-13T11:55:07.313Z,85.48
2018-11-13T11:57:36.279Z,86.19
2018-11-13T12:00:06.734Z,85.65
2018-11-13T12:02:35.210Z,86.65
2018-11-13T12:05:03.946Z,85.83
2018-11-13T12:07:32.631Z,85.79
2018-11-13T12:10:01.490Z,87.33
2018-11-13T12:12:30.590Z,85.76
2018-11-13T12:14:59.240Z,86.70
2018-11-13T12:17:27.909Z,85.51
2018-11-13T12:19:56.515Z,86.06
2018-11-13T12:22:25.172Z,85.32
2018-11-13T12:24:54.070Z,85.01
2018-11-13T12:27:22.655Z,83.23
2018-11-13T12:29:51.434Z,85.02
2018-11-13T12:32:20.015Z,84.32
2018-11-13T12:34:48.814Z,84.51
2018-11-13T12:37:17.923Z,84.62
2018-11-13T12:39:46.590Z,83.76
2018-11-13T12:42:15.721Z,84.55
2018-11-13T12:44:45.790Z,84.05
2018-11-13T12:47:14.685Z,85.02
2018-11-13T12:49:43.876Z,84.37
2018-11-13T12:52:15.938Z,83.33
2018-11-13T12:54:46.469Z,84.99
2018-11-13T12:57:15.912Z,83.41
2018-11-13T12:59:45.915Z,83.23
2018-11-13T13:02:16.282Z,82.28
2018-11-13T13:04:46.638Z,82.45
2018-11-13T13:07:15.290Z,81.72
2018-11-13T13:09:44.335Z,82.17
2018-11-13T13:12:13.200Z,82.73
2018-11-13T13:14:41.677Z,82.48
2018-11-13T13:17:10.205Z,82.71
2018-11-13T13:19:38.683Z,81.38
2018-11-13T13:22:07.482Z,81.61
2018-11-13T13:24:35.953Z,81.45
2018-11-13T13:27:04.573Z,81.37
2018-11-13T13:29:33.758Z,80.73
2018-11-13T13:32:02.534Z,80.83
2018-11-13T13:34:31.038Z,80.10
2018-11-13T13:36:59.598Z,81.25
2018-11-13T13:39:28.180Z,81.57
2018-11-13T13:41:56.805Z,81.19
2018-11-13T13:44:25.614Z,81.24
2018-11-13T13:46:54.563Z,82.11
2018-11-13T13:49:23.367Z,83.26
2018-11-13T13:51:52.355Z,82.52
2018-11-13T13:54:21.075Z,82.36
2018-11-13T13:56:49.673Z,81.02
2018-11-13T13:59:18.544Z,83.00
2018-11-13T14:01:47.160Z,81.44
2018-11-13T14:04:15.955Z,81.91
2018-11-13T14:06:44.513Z,81.65
2018-11-13T14:09:13.573Z,81.97
2018-11-13T14:11:42.077Z,82.35
2018-11-13T14:14:10.559Z,83.58
2018-11-13T14:16:39.183Z,87.83
2018-11-13T14:19:07.902Z,89.71
2018-11-13T14:21:37.252Z,90.35
2018-11-13T14:24:06.406Z,95.27
2018-11-13T14:26:35.244Z,100.00
2018-11-13T14:29:04.056Z,100.00
2018-11-13T14:31:33.112Z,100.00
2018-11-13T14:34:02.181Z,100.00
2018-11-13T14:36:32.132Z,100.00
2018-11-13T14:39:01.122Z,100.00
2018-11-13T14:41:30.447Z,100.00
2018-11-13T14:43:59.454Z,100.00
2018-11-13T14:46:28.303Z,100.00
2018-11-13T14:48:56.940Z,100.00
2018-11-13T14:51:25.654Z,100.00
2018-11-13T14:53:55.330Z,100.00
2018-11-13T14:56:24.556Z,100.00
2018-11-13T14:58:53.794Z,100.00
2018-11-13T15:01:23.038Z,100.00
2018-11-13T15:03:52.005Z,100.00
2018-11-13T15:06:20.818Z,100.00
2018-11-13T15:08:49.811Z,100.00
2018-11-13T15:11:18.509Z,100.00
2018-11-13T15:13:47.364Z,100.00
2018-11-13T15:16:16.380Z,100.00
2018-11-13T15:18:45.099Z,100.00
2018-11-13T15:21:14.454Z,100.00
2018-11-13T15:23:43.349Z,100.00
2018-11-13T15:26:11.726Z,100.00
2018-11-13T15:28:41.822Z,100.00
2018-11-13T15:31:10.335Z,100.00
2018-11-13T15:33:38.870Z,100.00
2018-11-13T15:36:07.275Z,100.00
2018-11-13T15:38:35.745Z,100.00
2018-11-13T15:41:04.351Z,100.00
2018-11-13T15:43:33.415Z,100.00
2018-11-13T15:46:01.964Z,100.00
2018-11-13T15:48:30.406Z,100.00
2018-11-13T15:50:58.860Z,100.00
2018-11-13T15:53:27.389Z,100.00
2018-11-13T15:55:55.909Z,100.00
2018-11-13T15:58:24.488Z,100.00
2018-11-13T16:00:53.504Z,100.00
2018-11-13T16:03:23.759Z,100.00
2018-11-13T16:05:53.632Z,100.00
2018-11-13T16:08:22.329Z,100.00
2018-11-13T16:10:50.761Z,100.00
2018-11-13T16:13:19.832Z,100.00
2018-11-13T16:15:48.377Z,100.00
2018-11-13T16:18:19.437Z,100.00
2018-11-13T16:20:47.917Z,100.00
2018-11-13T16:23:16.576Z,100.00
2018-11-13T16:25:45.089Z,100.00
2018-11-13T16:28:13.834Z,100.00
2018-11-13T16:30:42.595Z,100.00
2018-11-13T16:33:11.114Z,100.00
2018-11-13T16:35:39.663Z,100.00
2018-11-13T16:38:09.947Z,100.00
2018-11-13T16:40:38.293Z,100.00
2018-11-13T16:43:06.927Z,100.00
2018-11-13T16:45:35.820Z,100.00
2018-11-13T16:48:05.221Z,100.00
2018-11-13T16:50:36.826Z,100.00
2018-11-13T16:53:06.415Z,100.00
2018-11-13T16:55:40.441Z,100.00
2018-11-13T16:58:11.505Z,100.00
2018-11-13T17:00:40.331Z,100.00
2018-11-13T17:03:09.724Z,100.00
2018-11-13T17:05:38.237Z,100.00
2018-11-13T17:08:07.230Z,100.00
2018-11-13T17:10:39.362Z,100.00
2018-11-13T17:13:08.188Z,100.00
2018-11-13T17:15:37.835Z,100.00
2018-11-13T17:18:06.823Z,100.00
2018-11-13T17:20:35.424Z,100.00
2018-11-13T17:23:03.882Z,100.00
2018-11-13T17:25:34.243Z,100.00
2018-11-13T17:28:02.726Z,100.00
2018-11-13T17:30:34.244Z,100.00
2018-11-13T17:33:07.246Z,100.00
2018-11-13T17:35:36.675Z,100.00
2018-11-13T17:38:06.881Z,100.00
2018-11-13T17:40:37.476Z,100.00
2018-11-13T17:43:08.596Z,100.00
2018-11-13T17:45:38.659Z,100.00
2018-11-13T17:48:08.791Z,100.00
2018-11-13T17:50:38.951Z,100.00
2018-11-13T17:53:08.494Z,100.00
2018-11-13T17:55:37.151Z,100.00
2018-11-13T17:58:08.230Z,100.00
2018-11-13T18:00:40.730Z,100.00
2018-11-13T18:03:10.575Z,100.00
2018-11-13T18:05:39.682Z,100.00
2018-11-13T18:08:14.817Z,100.00
2018-11-13T18:10:45.801Z,100.00
2018-11-13T18:13:14.839Z,100.00
2018-11-13T18:15:44.311Z,100.00
2018-11-13T18:18:14.350Z,100.00
2018-11-13T18:20:49.167Z,100.00
2018-11-13T18:23:18.672Z,100.00
2018-11-13T18:25:48.804Z,100.00
2018-11-13T18:28:18.196Z,100.00
2018-11-13T18:30:47.241Z,100.00
2018-11-13T18:33:15.896Z,100.00
2018-11-13T18:35:47.528Z,100.00
2018-11-13T18:38:16.607Z,100.00
2018-11-13T18:40:46.220Z,100.00
2018-11-13T18:43:15.604Z,100.00
2018-11-13T18:45:44.612Z,100.00
2018-11-13T18:48:14.721Z,100.00
2018-11-13T18:50:44.858Z,100.00
2018-11-13T18:53:13.701Z,100.00
2018-11-13T18:55:42.848Z,100.00
2018-11-13T18:58:12.347Z,100.00
2018-11-13T19:00:42.669Z,100.00
2018-11-13T19:03:12.527Z,100.00
2018-11-13T19:05:41.339Z,100.00
2018-11-13T19:08:09.989Z,100.00
2018-11-13T19:10:40.766Z,100.00
2018-11-13T19:13:13.481Z,100.00
2018-11-13T19:15:45.806Z,100.00
2018-11-13T19:18:15.695Z,100.00
2018-11-13T19:20:45.333Z,100.00
2018-11-13T19:23:14.187Z,100.00
2018-11-13T19:25:43.336Z,100.00
2018-11-13T19:28:12.540Z,100.00
2018-11-13T19:30:41.501Z,100.00
2018-11-13T19:33:10.688Z,100.00
2018-11-13T19:35:40.241Z,100.00
2018-11-13T19:38:09.600Z,100.00
2018-11-13T19:40:38.701Z,100.00
2018-11-13T19:43:09.225Z,100.00
2018-11-13T19:45:38.024Z,100.00
2018-11-13T19:48:06.756Z,100.00
2018-11-13T19:50:36.573Z,100.00
2018-11-13T19:53:05.333Z,100.00
2018-11-13T19:55:34.386Z,100.00
2018-11-13T19:58:03.236Z,100.00
2018-11-13T20:00:34.380Z,100.00
2018-11-13T20:03:04.583Z,100.00
2018-11-13T20:05:33.542Z,100.00
2018-11-13T20:08:02.297Z,100.00
2018-11-13T20:10:33.084Z,100.00
2018-11-13T20:13:02.981Z,100.00
2018-11-13T20:15:32.401Z,100.00
2018-11-13T20:18:01.079Z,100.00
2018-11-13T20:20:30.882Z,100.00
2018-11-13T20:23:00.788Z,100.00
2018-11-13T20:25:30.812Z,100.00
2018-11-13T20:27:59.557Z,100.00
2018-11-13T20:30:33.201Z,100.00
2018-11-13T20:33:01.905Z,100.00
2018-11-13T20:35:30.533Z,100.00
2018-11-13T20:37:59.548Z,100.00
2018-11-13T20:40:30.427Z,100.00
2018-11-13T20:43:02.088Z,100.00
2018-11-13T20:45:30.788Z,100.00
2018-11-13T20:47:59.295Z,100.00
2018-11-13T20:50:29.359Z,100.00
2018-11-13T20:52:57.957Z,100.00
2018-11-13T20:55:26.857Z,100.00
2018-11-13T20:57:55.507Z,100.00
2018-11-13T21:00:29.708Z,100.00
2018-11-13T21:02:58.634Z,100.00
2018-11-13T21:05:27.211Z,100.00
2018-11-13T21:07:56.096Z,100.00
2018-11-13T21:10:30.913Z,100.00
2018-11-13T21:12:59.819Z,100.00
2018-11-13T21:15:28.463Z,100.00
2018-11-13T21:17:57.159Z,100.00
2018-11-13T21:20:26.164Z,100.00
2018-11-13T21:22:55.690Z,100.00
2018-11-13T21:25:25.319Z,100.00
2018-11-13T21:27:56.001Z,100.00
2018-11-13T21:30:28.765Z,100.00
2018-11-13T21:32:57.460Z,100.00
2018-11-13T21:35:25.951Z,100.00
2018-11-13T21:37:56.346Z,100.00
2018-11-13T21:40:26.483Z,100.00
2018-11-13T21:42:55.330Z,100.00
2018-11-13T21:45:24.754Z,100.00
2018-11-13T21:47:53.247Z,100.00
2018-11-13T21:50:23.915Z,100.00
2018-11-13T21:52:52.399Z,100.00
2018-11-13T21:55:22.136Z,100.00
2018-11-13T21:57:50.687Z,100.00
2018-11-13T22:00:24.334Z,100.00
2018-11-13T22:02:55.786Z,100.00
2018-11-13T22:05:25.689Z,100.00
2018-11-13T22:07:54.153Z,100.00
2018-11-13T22:10:22.743Z,100.00
2018-11-13T22:12:51.238Z,100.00
2018-11-13T22:15:21.504Z,100.00
2018-11-13T22:17:50.336Z,100.00
2018-11-13T22:20:19.620Z,100.00
2018-11-13T22:22:51.689Z,100.00
2018-11-13T22:25:21.701Z,100.00
2018-11-13T22:27:51.604Z,100.00
2018-11-13T22:30:21.719Z,100.00
2018-11-13T22:32:50.736Z,100.00
2018-11-13T22:35:19.935Z,100.00
2018-11-13T22:37:48.382Z,100.00
2018-11-13T22:40:22.259Z,100.00
2018-11-13T22:42:51.063Z,100.00
2018-11-13T22:45:23.620Z,100.00
2018-11-13T22:47:52.334Z,100.00
2018-11-13T22:50:22.579Z,100.00
2018-11-13T22:52:51.603Z,100.00
2018-11-13T22:55:20.528Z,100.00
2018-11-13T22:57:49.825Z,100.00
2018-11-13T23:00:21.557Z,100.00
2018-11-13T23:02:51.370Z,100.00
2018-11-13T23:05:20.216Z,100.00
2018-11-13T23:07:48.790Z,100.00
2018-11-13T23:10:17.778Z,100.00
2018-11-13T23:12:46.597Z,100.00
2018-11-13T23:15:17.578Z,100.00
2018-11-13T23:17:46.108Z,100.00
2018-11-13T23:20:16.923Z,100.00
2018-11-13T23:22:45.624Z,100.00
2018-11-13T23:25:15.413Z,100.00
2018-11-13T23:27:44.841Z,100.00
2018-11-13T23:30:19.097Z,100.00
2018-11-13T23:32:47.855Z,100.00
2018-11-13T23:35:16.714Z,100.00
2018-11-13T23:37:46.232Z,100.00
2018-11-13T23:40:15.942Z,100.00
2018-11-13T23:42:44.728Z,100.00
2018-11-13T23:45:14.050Z,100.00
2018-11-13T23:47:43.549Z,100.00
2018-11-13T23:50:12.218Z,100.00
2018-11-13T23:52:41.347Z,100.00
2018-11-13T23:55:11.023Z,100.00
2018-11-13T23:57:39.937Z,100.00
